createdAt,value
2019-02-04T00:01:21.194Z,101493.03
2019-02-04T00:03:49.449Z,101494.31
2019-02-04T00:06:18.368Z,101503.46
2019-02-04T00:08:46.680Z,101510.41
2019-02-04T00:11:15.044Z,101510.41
2019-02-04T00:13:43.368Z,101528.73
2019-02-04T00:16:10.577Z,101520.53
2019-02-04T00:18:39.508Z,101514.89
2019-02-04T00:21:08.013Z,101522.84
2019-02-04T00:23:35.119Z,101521.70
2019-02-04T00:26:02.228Z,101521.70
2019-02-04T00:28:29.344Z,101525.75
2019-02-04T00:30:57.814Z,101522.77
2019-02-04T00:33:24.914Z,101515.67
2019-02-04T00:35:53.765Z,101523.42
2019-02-04T00:38:22.001Z,101539.40
2019-02-04T00:40:50.217Z,101539.40
2019-02-04T00:43:17.362Z,101547.48
2019-02-04T00:45:45.668Z,101540.80
2019-02-04T00:48:12.887Z,101540.80
2019-02-04T00:50:41.801Z,101536.66
2019-02-04T00:53:10.926Z,101550.02
2019-02-04T00:55:38.038Z,101550.42
2019-02-04T00:58:05.134Z,101550.42
2019-02-04T01:00:32.362Z,101557.98
2019-02-04T01:03:01.362Z,101544.22
2019-02-04T01:05:28.673Z,101535.25
2019-02-04T01:07:56.281Z,101523.52
2019-02-04T01:10:24.728Z,101521.16
2019-02-04T01:12:51.840Z,101517.98
2019-02-04T01:15:19.008Z,101520.43
2019-02-04T01:17:48.095Z,101520.43
2019-02-04T01:20:18.656Z,101521.02
2019-02-04T01:22:45.807Z,101519.45
2019-02-04T01:25:14.825Z,101519.45
2019-02-04T01:27:42.042Z,101524.86
2019-02-04T01:30:10.240Z,101527.42
2019-02-04T01:32:37.419Z,101544.00
2019-02-04T01:35:06.548Z,101542.89
2019-02-04T01:37:33.654Z,101542.89
2019-02-04T01:40:02.725Z,101541.45
2019-02-04T01:42:29.820Z,101547.66
2019-02-04T01:44:58.122Z,101549.90
2019-02-04T01:47:25.287Z,101549.02
2019-02-04T01:49:52.396Z,101562.42
2019-02-04T01:52:21.389Z,101562.42
2019-02-04T01:54:50.297Z,101566.34
2019-02-04T01:57:17.607Z,101572.27
2019-02-04T01:59:44.737Z,101572.27
2019-02-04T02:02:11.864Z,101572.87
2019-02-04T02:04:40.801Z,101588.65
2019-02-04T02:07:08.084Z,101605.39
2019-02-04T02:09:35.270Z,101606.47
2019-02-04T02:12:02.884Z,101610.31
2019-02-04T02:14:30.006Z,101610.31
2019-02-04T02:16:57.235Z,101591.61
2019-02-04T02:19:25.653Z,101591.61
2019-02-04T02:21:53.872Z,101590.91
2019-02-04T02:24:22.768Z,101590.91
2019-02-04T02:26:50.927Z,101589.61
2019-02-04T02:29:19.131Z,101589.61
2019-02-04T02:31:47.532Z,101574.60
2019-02-04T02:34:14.659Z,101584.35
2019-02-04T02:36:41.773Z,101584.86
2019-02-04T02:39:08.924Z,101591.86
2019-02-04T02:41:36.295Z,101602.79
2019-02-04T02:44:04.034Z,101594.31
2019-02-04T02:46:31.271Z,101595.41
2019-02-04T02:48:58.619Z,101597.16
2019-02-04T02:51:25.769Z,101595.61
2019-02-04T02:53:54.922Z,101596.70
2019-02-04T02:56:22.104Z,101594.44
2019-02-04T02:58:49.338Z,101583.23
2019-02-04T03:01:16.747Z,101583.23
2019-02-04T03:03:44.097Z,101597.69
2019-02-04T03:06:11.518Z,101594.64
2019-02-04T03:08:38.763Z,101598.41
2019-02-04T03:11:05.878Z,101601.05
2019-02-04T03:13:33.094Z,101606.45
2019-02-04T03:16:00.215Z,101600.58
2019-02-04T03:18:27.328Z,101598.28
2019-02-04T03:20:54.548Z,101597.87
2019-02-04T03:23:23.885Z,101596.29
2019-02-04T03:25:52.253Z,101596.29
2019-02-04T03:28:21.161Z,101604.28
2019-02-04T03:30:50.314Z,101606.55
2019-02-04T03:33:17.589Z,101609.09
2019-02-04T03:35:44.688Z,101609.09
2019-02-04T03:38:12.909Z,101604.14
2019-02-04T03:40:41.047Z,101606.48
2019-02-04T03:43:08.316Z,101597.46
2019-02-04T03:45:35.454Z,101588.99
2019-02-04T03:48:07.550Z,101587.23
2019-02-04T03:50:33.028Z,101598.26
2019-02-04T03:53:00.246Z,101607.68
2019-02-04T03:55:27.549Z,101606.66
2019-02-04T03:57:54.809Z,101620.70
2019-02-04T04:00:27.834Z,101618.72
2019-02-04T04:02:56.364Z,101616.69
2019-02-04T04:05:23.966Z,101609.95
2019-02-04T04:07:53.390Z,101620.16
2019-02-04T04:10:20.544Z,101613.73
2019-02-04T04:12:49.473Z,101609.09
2019-02-04T04:15:17.832Z,101610.34
2019-02-04T04:17:44.929Z,101616.58
2019-02-04T04:20:13.519Z,101613.31
2019-02-04T04:22:40.799Z,101619.22
2019-02-04T04:25:10.003Z,101624.03
2019-02-04T04:27:37.145Z,101631.64
2019-02-04T04:30:06.040Z,101623.89
2019-02-04T04:32:33.148Z,101617.31
2019-02-04T04:35:00.342Z,101620.09
2019-02-04T04:37:28.023Z,101616.77
2019-02-04T04:39:57.032Z,101627.58
2019-02-04T04:42:25.939Z,101621.00
2019-02-04T04:44:53.149Z,101632.94
2019-02-04T04:47:22.166Z,101633.67
2019-02-04T04:49:49.343Z,101636.59
2019-02-04T04:52:19.331Z,101647.95
2019-02-04T04:54:47.761Z,101639.69
2019-02-04T04:57:14.975Z,101643.92
2019-02-04T04:59:42.090Z,101643.92
2019-02-04T05:02:11.178Z,101641.91
2019-02-04T05:04:41.979Z,101638.78
2019-02-04T05:07:09.086Z,101637.98
2019-02-04T05:09:37.705Z,101654.19
2019-02-04T05:12:04.812Z,101654.19
2019-02-04T05:14:32.038Z,101652.71
2019-02-04T05:16:59.194Z,101652.71
2019-02-04T05:19:26.400Z,101656.86
2019-02-04T05:21:53.511Z,101656.86
2019-02-04T05:24:20.736Z,101655.86
2019-02-04T05:26:47.850Z,101658.41
2019-02-04T05:29:16.044Z,101655.09
2019-02-04T05:31:43.153Z,101654.97
2019-02-04T05:34:11.362Z,101650.56
2019-02-04T05:36:38.543Z,101653.95
2019-02-04T05:39:08.580Z,101653.95
2019-02-04T05:41:37.804Z,101662.00
2019-02-04T05:44:04.903Z,101666.51
2019-02-04T05:46:33.105Z,101666.51
2019-02-04T05:49:01.457Z,101667.11
2019-02-04T05:51:31.460Z,101666.94
2019-02-04T05:53:59.678Z,101667.14
2019-02-04T05:56:26.911Z,101667.45
2019-02-04T05:58:54.183Z,101659.30
2019-02-04T06:01:23.106Z,101653.12
2019-02-04T06:03:50.272Z,101657.31
2019-02-04T06:06:17.386Z,101661.78
2019-02-04T06:08:44.592Z,101679.76
2019-02-04T06:11:11.869Z,101676.14
2019-02-04T06:13:39.114Z,101678.52
2019-02-04T06:16:06.241Z,101668.28
2019-02-04T06:18:33.359Z,101668.28
2019-02-04T06:21:00.466Z,101680.79
2019-02-04T06:23:29.576Z,101680.79
2019-02-04T06:25:56.691Z,101676.67
2019-02-04T06:28:23.793Z,101676.67
2019-02-04T06:30:52.886Z,101669.46
2019-02-04T06:33:21.810Z,101672.31
2019-02-04T06:35:49.032Z,101683.84
2019-02-04T06:38:17.348Z,101683.84
2019-02-04T06:40:46.257Z,101684.13
2019-02-04T06:43:13.369Z,101689.17
2019-02-04T06:45:42.291Z,101696.47
2019-02-04T06:48:09.399Z,101689.85
2019-02-04T06:50:36.748Z,101689.85
2019-02-04T06:53:05.655Z,101681.00
2019-02-04T06:55:32.888Z,101680.59
2019-02-04T06:58:02.943Z,101693.29
2019-02-04T07:00:31.264Z,101690.84
2019-02-04T07:02:58.788Z,101690.84
2019-02-04T07:05:25.911Z,101694.89
2019-02-04T07:07:54.223Z,101694.89
2019-02-04T07:10:23.442Z,101699.51
2019-02-04T07:12:50.744Z,101687.41
2019-02-04T07:15:19.665Z,101687.41
2019-02-04T07:17:46.760Z,101698.75
2019-02-04T07:20:19.468Z,101690.25
2019-02-04T07:22:49.595Z,101694.10
2019-02-04T07:25:17.536Z,101694.10
2019-02-04T07:27:45.968Z,101693.50
2019-02-04T07:30:16.209Z,101693.50
2019-02-04T07:32:43.329Z,101700.02
2019-02-04T07:35:11.868Z,101700.02
2019-02-04T07:37:39.108Z,101700.22
2019-02-04T07:40:10.688Z,101696.26
2019-02-04T07:42:39.110Z,101699.62
2019-02-04T07:45:08.072Z,101702.00
2019-02-04T07:47:35.377Z,101695.38
2019-02-04T07:50:03.203Z,101695.38
2019-02-04T07:52:30.434Z,101691.82
2019-02-04T07:54:57.692Z,101691.45
2019-02-04T07:57:24.800Z,101691.45
2019-02-04T07:59:52.209Z,101698.43
2019-02-04T08:02:21.138Z,101696.86
2019-02-04T08:04:49.404Z,101684.84
2019-02-04T08:07:16.824Z,101684.84
2019-02-04T08:09:44.054Z,101686.60
2019-02-04T08:12:11.168Z,101684.24
2019-02-04T08:14:38.294Z,101695.09
2019-02-04T08:17:05.394Z,101689.66
2019-02-04T08:19:46.391Z,101690.73
2019-02-04T08:22:04.482Z,101698.34
2019-02-04T08:24:33.093Z,101704.56
2019-02-04T08:27:00.214Z,101701.19
2019-02-04T08:29:27.413Z,101701.19
2019-02-04T08:31:54.790Z,101703.56
2019-02-04T08:34:23.816Z,101689.57
2019-02-04T08:36:52.033Z,101689.57
2019-02-04T08:39:20.265Z,101689.77
2019-02-04T08:41:47.492Z,101690.53
2019-02-04T08:44:14.600Z,101700.03
2019-02-04T08:46:41.932Z,101696.94
2019-02-04T08:49:10.151Z,101696.94
2019-02-04T08:51:38.362Z,101709.47
2019-02-04T08:54:05.493Z,101721.30
2019-02-04T08:56:32.660Z,101722.77
2019-02-04T08:59:02.064Z,101722.77
2019-02-04T09:01:29.516Z,101724.03
2019-02-04T09:03:56.696Z,101722.09
2019-02-04T09:06:23.812Z,101722.23
2019-02-04T09:08:52.038Z,101725.94
2019-02-04T09:11:19.147Z,101725.94
2019-02-04T09:13:47.580Z,101736.96
2019-02-04T09:16:14.868Z,101734.15
2019-02-04T09:18:44.924Z,101735.19
2019-02-04T09:21:13.271Z,101729.39
2019-02-04T09:23:41.483Z,101736.16
2019-02-04T09:26:08.586Z,101737.25
2019-02-04T09:28:37.627Z,101733.06
2019-02-04T09:31:04.985Z,101732.79
2019-02-04T09:33:34.588Z,101741.34
2019-02-04T09:36:01.802Z,101742.58
2019-02-04T09:38:29.070Z,101737.28
2019-02-04T09:40:56.277Z,101747.63
2019-02-04T09:43:24.679Z,101746.59
2019-02-04T09:45:52.932Z,101746.70
2019-02-04T09:48:22.938Z,101741.17
2019-02-04T09:50:54.704Z,101745.48
2019-02-04T09:53:21.803Z,101752.60
2019-02-04T09:55:50.748Z,101754.94
2019-02-04T09:58:18.977Z,101752.54
2019-02-04T10:00:47.277Z,101749.25
2019-02-04T10:03:14.470Z,101751.59
2019-02-04T10:05:41.973Z,101749.26
2019-02-04T10:08:09.289Z,101757.02
2019-02-04T10:10:36.567Z,101755.16
2019-02-04T10:13:04.403Z,101755.59
2019-02-04T10:15:33.930Z,101755.59
2019-02-04T10:18:01.379Z,101741.58
2019-02-04T10:20:34.216Z,101741.58
2019-02-04T10:22:57.828Z,101757.59
2019-02-04T10:25:27.246Z,101764.14
2019-02-04T10:27:56.134Z,101763.02
2019-02-04T10:30:24.511Z,101766.23
2019-02-04T10:32:51.831Z,101768.98
2019-02-04T10:35:19.849Z,101759.69
2019-02-04T10:37:49.155Z,101759.69
2019-02-04T10:40:20.768Z,101766.69
2019-02-04T10:42:48.122Z,101770.88
2019-02-04T10:45:15.777Z,101758.30
2019-02-04T10:47:42.885Z,101765.95
2019-02-04T10:50:19.081Z,101763.27
2019-02-04T10:52:47.469Z,101766.48
2019-02-04T10:55:14.895Z,101754.05
2019-02-04T10:57:42.026Z,101756.48
2019-02-04T11:00:11.894Z,101760.97
2019-02-04T11:02:40.247Z,101760.94
2019-02-04T11:05:12.170Z,101752.63
2019-02-04T11:07:41.418Z,101754.12
2019-02-04T11:10:09.666Z,101758.45
2019-02-04T11:12:40.348Z,101756.65
2019-02-04T11:15:08.658Z,101760.00
2019-02-04T11:17:37.584Z,101759.83
2019-02-04T11:20:08.765Z,101755.91
2019-02-04T11:22:36.299Z,101758.31
2019-02-04T11:25:04.535Z,101757.70
2019-02-04T11:27:32.754Z,101760.98
2019-02-04T11:30:01.957Z,101758.28
2019-02-04T11:32:29.262Z,101762.05
2019-02-04T11:34:56.469Z,101755.93
2019-02-04T11:37:24.131Z,101756.95
2019-02-04T11:39:53.131Z,101764.49
2019-02-04T11:42:20.451Z,101759.52
2019-02-04T11:44:47.633Z,101755.37
2019-02-04T11:47:14.775Z,101752.98
2019-02-04T11:49:42.036Z,101757.97
2019-02-04T11:52:09.270Z,101767.22
2019-02-04T11:54:37.059Z,101768.23
2019-02-04T11:57:05.471Z,101767.97
2019-02-04T11:59:35.432Z,101767.28
2019-02-04T12:02:03.128Z,101762.66
2019-02-04T12:04:30.220Z,101760.21
2019-02-04T12:06:58.494Z,101760.81
2019-02-04T12:09:25.750Z,101757.95
2019-02-04T12:11:55.649Z,101751.63
2019-02-04T12:14:23.882Z,101769.55
2019-02-04T12:16:52.845Z,101765.30
2019-02-04T12:19:19.976Z,101754.67
2019-02-04T12:21:48.212Z,101768.63
2019-02-04T12:24:15.319Z,101766.55
2019-02-04T12:26:42.700Z,101768.38
2019-02-04T12:29:11.010Z,101771.02
2019-02-04T12:31:41.080Z,101766.86
2019-02-04T12:34:08.177Z,101763.58
2019-02-04T12:36:35.401Z,101756.83
2019-02-04T12:39:06.672Z,101756.91
2019-02-04T12:41:33.797Z,101767.73
2019-02-04T12:44:02.747Z,101758.26
2019-02-04T12:46:29.880Z,101752.34
2019-02-04T12:48:56.970Z,101753.67
2019-02-04T12:51:33.225Z,101745.50
2019-02-04T12:53:53.253Z,101743.88
2019-02-04T12:56:20.565Z,101749.19
2019-02-04T12:58:55.243Z,101747.14
2019-02-04T13:01:17.070Z,101741.68
2019-02-04T13:03:45.529Z,101743.56
2019-02-04T13:06:16.349Z,101733.80
2019-02-04T13:08:43.458Z,101735.27
2019-02-04T13:11:10.593Z,101741.55
2019-02-04T13:13:37.888Z,101738.33
2019-02-04T13:16:06.618Z,101730.32
2019-02-04T13:18:33.757Z,101723.14
2019-02-04T13:21:01.072Z,101714.28
2019-02-04T13:23:28.180Z,101710.61
2019-02-04T13:25:55.285Z,101715.11
2019-02-04T13:28:26.071Z,101713.57
2019-02-04T13:30:54.370Z,101712.86
2019-02-04T13:33:21.634Z,101715.11
2019-02-04T13:35:48.762Z,101713.94
2019-02-04T13:38:18.388Z,101718.36
2019-02-04T13:40:45.697Z,101708.45
2019-02-04T13:43:12.982Z,101702.52
2019-02-04T13:45:40.179Z,101710.30
2019-02-04T13:48:08.601Z,101711.22
2019-02-04T13:50:37.991Z,101706.03
2019-02-04T13:53:05.491Z,101694.02
2019-02-04T13:55:33.025Z,101690.14
2019-02-04T13:58:00.434Z,101691.97
2019-02-04T14:00:27.943Z,101688.96
2019-02-04T14:02:59.226Z,101694.61
2019-02-04T14:05:25.183Z,101692.06
2019-02-04T14:07:52.622Z,101683.18
2019-02-04T14:10:22.939Z,101679.75
2019-02-04T14:12:50.204Z,101684.64
2019-02-04T14:15:19.163Z,101683.88
2019-02-04T14:17:47.472Z,101682.23
2019-02-04T14:20:16.832Z,101683.57
2019-02-04T14:22:44.173Z,101685.41
2019-02-04T14:25:12.711Z,101687.20
2019-02-04T14:27:40.038Z,101684.69
2019-02-04T14:30:10.539Z,101682.55
2019-02-04T14:32:37.658Z,101682.20
2019-02-04T14:35:05.615Z,101675.84
2019-02-04T14:37:33.534Z,101682.02
2019-02-04T14:40:17.559Z,101679.05
2019-02-04T14:42:34.390Z,101682.63
2019-02-04T14:45:37.835Z,101687.47
2019-02-04T14:48:30.840Z,101687.17
2019-02-04T14:51:31.073Z,101689.11
2019-02-04T14:54:38.142Z,101679.72
2019-02-04T14:57:47.035Z,101679.77
2019-02-04T15:00:59.459Z,101676.93
2019-02-04T15:04:06.704Z,101674.48
2019-02-04T15:07:10.166Z,101671.13
2019-02-04T15:10:40.541Z,101669.03
2019-02-04T15:13:43.396Z,101670.81
2019-02-04T15:16:36.642Z,101665.31
2019-02-04T15:19:49.560Z,101666.30
2019-02-04T15:22:34.394Z,101660.34
2019-02-04T15:25:18.779Z,101653.96
2019-02-04T15:28:09.396Z,101649.22
2019-02-04T15:31:19.948Z,101648.45
2019-02-04T15:33:57.374Z,101645.93
2019-02-04T15:37:21.578Z,101641.66
2019-02-04T15:40:01.332Z,101649.55
2019-02-04T15:42:59.540Z,101640.53
2019-02-04T15:45:45.137Z,101638.46
2019-02-04T15:48:19.481Z,101634.14
2019-02-04T15:51:08.651Z,101627.76
2019-02-04T15:53:36.744Z,101626.11
2019-02-04T15:56:05.453Z,101625.72
2019-02-04T15:58:32.675Z,101627.02
2019-02-04T16:00:59.790Z,101623.65
2019-02-04T16:03:28.821Z,101615.92
2019-02-04T16:05:56.056Z,101615.99
2019-02-04T16:08:28.275Z,101619.08
2019-02-04T16:10:55.380Z,101614.44
2019-02-04T16:13:24.065Z,101606.69
2019-02-04T16:15:52.281Z,101608.92
2019-02-04T16:18:19.410Z,101605.55
2019-02-04T16:20:47.656Z,101600.81
2019-02-04T16:23:15.872Z,101602.21
2019-02-04T16:25:44.276Z,101600.56
2019-02-04T16:28:11.374Z,101604.59
2019-02-04T16:30:38.775Z,101594.30
2019-02-04T16:33:06.128Z,101593.97
2019-02-04T16:35:33.200Z,101587.50
2019-02-04T16:38:02.222Z,101592.77
2019-02-04T16:40:30.527Z,101592.86
2019-02-04T16:42:57.825Z,101589.42
2019-02-04T16:45:25.019Z,101591.66
2019-02-04T16:47:52.377Z,101586.06
2019-02-04T16:50:25.582Z,101584.84
2019-02-04T16:52:53.812Z,101582.27
2019-02-04T16:55:21.014Z,101577.09
2019-02-04T16:57:48.112Z,101584.53
2019-02-04T17:00:18.525Z,101582.00
2019-02-04T17:02:46.458Z,101583.33
2019-02-04T17:05:15.339Z,101578.65
2019-02-04T17:07:43.694Z,101583.94
2019-02-04T17:10:14.160Z,101577.89
2019-02-04T17:12:41.248Z,101566.20
2019-02-04T17:15:08.827Z,101567.14
2019-02-04T17:17:36.133Z,101570.62
2019-02-04T17:20:06.485Z,101571.94
2019-02-04T17:22:33.614Z,101572.39
2019-02-04T17:25:00.729Z,101582.79
2019-02-04T17:27:28.942Z,101581.16
2019-02-04T17:29:57.352Z,101582.95
2019-02-04T17:32:24.586Z,101584.34
2019-02-04T17:34:53.896Z,101585.66
2019-02-04T17:37:21.002Z,101589.63
2019-02-04T17:39:48.110Z,101591.83
2019-02-04T17:42:15.358Z,101592.70
2019-02-04T17:44:42.472Z,101588.45
2019-02-04T17:47:09.581Z,101601.90
2019-02-04T17:49:36.682Z,101598.94
2019-02-04T17:52:04.215Z,101602.87
2019-02-04T17:54:31.353Z,101605.55
2019-02-04T17:56:59.973Z,101594.80
2019-02-04T17:59:27.071Z,101593.52
2019-02-04T18:01:55.473Z,101596.27
2019-02-04T18:04:22.569Z,101587.62
2019-02-04T18:06:49.921Z,101587.66
2019-02-04T18:09:17.341Z,101583.39
2019-02-04T18:11:44.538Z,101581.30
2019-02-04T18:14:13.461Z,101576.19
2019-02-04T18:16:41.762Z,101571.44
2019-02-04T18:19:10.286Z,101572.77
2019-02-04T18:21:38.677Z,101567.19
2019-02-04T18:24:07.202Z,101565.98
2019-02-04T18:26:34.538Z,101562.98
2019-02-04T18:29:01.860Z,101556.53
2019-02-04T18:31:29.072Z,101554.44
2019-02-04T18:33:57.907Z,101548.47
2019-02-04T18:36:27.932Z,101546.77
2019-02-04T18:38:55.539Z,101539.90
2019-02-04T18:41:23.949Z,101535.63
2019-02-04T18:43:51.108Z,101530.42
2019-02-04T18:46:20.264Z,101531.33
2019-02-04T18:48:47.909Z,101519.19
2019-02-04T18:51:15.155Z,101526.20
2019-02-04T18:53:42.250Z,101521.02
2019-02-04T18:56:10.497Z,101518.48
2019-02-04T18:58:37.911Z,101514.20
2019-02-04T19:01:05.453Z,101513.38
2019-02-04T19:03:32.569Z,101516.05
2019-02-04T19:05:59.783Z,101511.73
2019-02-04T19:08:27.079Z,101509.13
2019-02-04T19:10:54.332Z,101506.15
2019-02-04T19:13:35.418Z,101503.12
2019-02-04T19:15:52.860Z,101492.79
2019-02-04T19:18:20.235Z,101486.73
2019-02-04T19:20:50.261Z,101481.09
2019-02-04T19:23:20.454Z,101473.77
2019-02-04T19:25:47.673Z,101462.50
2019-02-04T19:28:16.565Z,101462.53
2019-02-04T19:31:15.009Z,101459.53
2019-02-04T19:33:43.215Z,101455.65
2019-02-04T19:36:11.986Z,101451.38
2019-02-04T19:38:40.489Z,101452.25
2019-02-04T19:41:07.781Z,101441.83
2019-02-04T19:43:35.182Z,101436.63
2019-02-04T19:46:02.493Z,101434.88
2019-02-04T19:48:31.433Z,101430.14
2019-02-04T19:50:58.635Z,101427.16
2019-02-04T19:53:29.245Z,101415.00
2019-02-04T19:55:57.467Z,101418.91
2019-02-04T19:58:24.657Z,101408.49
2019-02-04T20:00:52.098Z,101407.19
2019-02-04T20:03:20.387Z,101393.32
2019-02-04T20:05:47.489Z,101392.47
2019-02-04T20:08:14.630Z,101384.66
2019-02-04T20:10:42.451Z,101381.63
2019-02-04T20:13:10.880Z,101378.64
2019-02-04T20:15:39.489Z,101369.91
2019-02-04T20:18:08.426Z,101371.28
2019-02-04T20:20:36.136Z,101365.63
2019-02-04T20:23:04.416Z,101366.08
2019-02-04T20:25:32.242Z,101358.27
2019-02-04T20:28:00.076Z,101351.80
2019-02-04T20:30:30.458Z,101353.53
2019-02-04T20:32:57.755Z,101345.30
2019-02-04T20:35:24.915Z,101345.31
2019-02-04T20:37:53.809Z,101340.11
2019-02-04T20:40:21.316Z,101338.37
2019-02-04T20:42:49.851Z,101339.73
2019-02-04T20:45:17.355Z,101334.97
2019-02-04T20:47:44.829Z,101331.08
2019-02-04T20:50:15.144Z,101331.13
2019-02-04T20:52:44.428Z,101332.02
2019-02-04T20:55:12.080Z,101322.95
2019-02-04T20:57:40.969Z,101322.59
2019-02-04T21:00:11.845Z,101315.27
2019-02-04T21:02:39.226Z,101314.91
2019-02-04T21:05:06.921Z,101314.97
2019-02-04T21:07:34.050Z,101306.31
2019-02-04T21:10:01.166Z,101302.45
2019-02-04T21:12:28.393Z,101304.70
2019-02-04T21:14:55.556Z,101301.34
2019-02-04T21:17:22.660Z,101296.15
2019-02-04T21:19:50.065Z,101290.60
2019-02-04T21:22:17.210Z,101291.94
2019-02-04T21:24:56.090Z,101297.68
2019-02-04T21:27:14.792Z,101294.72
2019-02-04T21:29:43.044Z,101290.44
2019-02-04T21:32:10.337Z,101287.06
2019-02-04T21:34:37.452Z,101278.88
2019-02-04T21:37:05.711Z,101282.85
2019-02-04T21:39:32.859Z,101273.83
2019-02-04T21:42:01.156Z,101270.41
2019-02-04T21:44:28.313Z,101274.77
2019-02-04T21:46:55.706Z,101277.92
2019-02-04T21:49:23.173Z,101269.72
2019-02-04T21:51:51.590Z,101275.47
2019-02-04T21:54:18.780Z,101270.73
2019-02-04T21:56:45.882Z,101264.23
2019-02-04T21:59:14.172Z,101266.45
2019-02-04T22:01:42.421Z,101259.55
2019-02-04T22:04:10.009Z,101260.90
2019-02-04T22:06:37.373Z,101257.05
2019-02-04T22:09:07.650Z,101251.41
2019-02-04T22:11:34.781Z,101252.31
2019-02-04T22:14:02.596Z,101249.75
2019-02-04T22:16:30.816Z,101246.71
2019-02-04T22:18:59.930Z,101237.15
2019-02-04T22:21:27.188Z,101240.23
2019-02-04T22:23:54.852Z,101240.67
2019-02-04T22:26:23.141Z,101238.55
2019-02-04T22:28:52.049Z,101235.94
2019-02-04T22:31:21.055Z,101231.16
2019-02-04T22:33:50.640Z,101239.46
2019-02-04T22:36:19.654Z,101234.68
2019-02-04T22:38:47.220Z,101237.73
2019-02-04T22:41:15.584Z,101230.81
2019-02-04T22:43:44.181Z,101229.51
2019-02-04T22:46:12.499Z,101226.03
2019-02-04T22:48:39.603Z,101226.07
2019-02-04T22:51:06.700Z,101227.38
2019-02-04T22:53:33.804Z,101218.25
2019-02-04T22:56:03.391Z,101218.73
2019-02-04T22:58:31.826Z,101224.38
2019-02-04T23:01:29.002Z,101220.03
2019-02-04T23:03:57.227Z,101214.81
2019-02-04T23:06:24.431Z,101203.98
2019-02-04T23:08:52.056Z,101210.07
2019-02-04T23:11:19.599Z,101206.16
2019-02-04T23:13:47.823Z,101197.90
2019-02-04T23:16:14.911Z,101202.25
2019-02-04T23:18:43.265Z,101201.41
2019-02-04T23:21:10.363Z,101203.16
2019-02-04T23:23:37.576Z,101203.16
2019-02-04T23:26:04.697Z,101199.72
2019-02-04T23:28:31.873Z,101196.24
2019-02-04T23:30:59.005Z,101197.98
2019-02-04T23:33:34.044Z,101198.85
2019-02-04T23:35:57.116Z,101195.41
2019-02-04T23:38:25.431Z,101190.19
2019-02-04T23:40:53.682Z,101189.76
2019-02-04T23:43:21.531Z,101183.67
2019-02-04T23:45:48.729Z,101185.84
2019-02-04T23:48:17.607Z,101184.98
2019-02-04T23:50:44.703Z,101183.71
2019-02-04T23:53:11.801Z,101178.05
2019-02-04T23:55:38.892Z,101178.49
2019-02-04T23:58:06.001Z,101180.23
